createdAt,value
2023-05-09T00:01:52.746Z,24.58
2023-05-09T00:04:21.101Z,24.54
2023-05-09T00:06:49.041Z,24.38
2023-05-09T00:09:17.626Z,24.59
2023-05-09T00:11:45.363Z,24.59
2023-05-09T00:14:14.043Z,24.43
2023-05-09T00:16:41.882Z,24.38
2023-05-09T00:19:10.076Z,24.49
2023-05-09T00:21:38.054Z,24.48
2023-05-09T00:24:06.458Z,24.54
2023-05-09T00:26:34.306Z,24.50
2023-05-09T00:29:02.154Z,24.53
2023-05-09T00:31:29.943Z,24.43
2023-05-09T00:33:57.737Z,24.62
2023-05-09T00:36:25.995Z,24.50
2023-05-09T00:38:53.869Z,24.59
2023-05-09T00:41:24.596Z,24.18
2023-05-09T00:43:52.441Z,24.47
2023-05-09T00:46:20.299Z,24.54
2023-05-09T00:48:48.433Z,24.42
2023-05-09T00:51:17.239Z,24.50
2023-05-09T00:53:47.972Z,24.56
2023-05-09T00:56:16.066Z,24.54
2023-05-09T00:58:44.361Z,23.96
2023-05-09T01:01:12.365Z,24.56
2023-05-09T01:03:41.856Z,24.57
2023-05-09T01:06:12.951Z,24.53
2023-05-09T01:08:51.435Z,24.53
2023-05-09T01:11:44.812Z,24.25
2023-05-09T01:14:39.931Z,24.51
2023-05-09T01:17:18.538Z,24.50
2023-05-09T01:20:05.817Z,24.49
2023-05-09T01:22:37.348Z,24.48
2023-05-09T01:25:14.154Z,24.48
2023-05-09T01:27:53.808Z,24.49
2023-05-09T01:30:22.408Z,24.31
2023-05-09T01:32:52.319Z,24.44
2023-05-09T01:35:26.055Z,24.45
2023-05-09T01:37:55.568Z,24.50
2023-05-09T01:40:26.751Z,24.39
2023-05-09T01:43:04.222Z,24.33
2023-05-09T01:45:33.348Z,24.33
2023-05-09T01:48:02.302Z,24.35
2023-05-09T01:50:31.471Z,24.23
2023-05-09T01:53:01.618Z,24.42
2023-05-09T01:55:32.898Z,24.51
2023-05-09T01:58:03.259Z,24.25
2023-05-09T02:00:33.665Z,24.28
2023-05-09T02:03:04.202Z,24.39
2023-05-09T02:05:33.853Z,24.38
2023-05-09T02:08:01.647Z,24.47
2023-05-09T02:10:30.050Z,24.37
2023-05-09T02:12:58.752Z,24.29
2023-05-09T02:15:26.875Z,24.47
2023-05-09T02:17:54.699Z,24.48
2023-05-09T02:20:22.721Z,24.18
2023-05-09T02:22:51.283Z,24.42
2023-05-09T02:25:20.216Z,24.47
2023-05-09T02:27:48.045Z,24.43
2023-05-09T02:30:23.566Z,24.44
2023-05-09T02:32:57.162Z,24.37
2023-05-09T02:35:27.564Z,24.38
2023-05-09T02:37:57.117Z,24.20
2023-05-09T02:40:30.448Z,24.40
2023-05-09T02:42:58.259Z,24.35
2023-05-09T02:45:26.288Z,24.22
2023-05-09T02:47:54.241Z,24.19
2023-05-09T02:50:24.118Z,24.22
2023-05-09T02:52:52.237Z,24.44
2023-05-09T02:55:20.028Z,24.20
2023-05-09T02:57:47.911Z,24.17
2023-05-09T03:00:18.198Z,24.40
2023-05-09T03:02:46.153Z,24.41
2023-05-09T03:05:18.065Z,24.29
2023-05-09T03:07:46.162Z,24.27
2023-05-09T03:10:14.829Z,24.42
2023-05-09T03:12:43.959Z,24.20
2023-05-09T03:15:13.242Z,24.40
2023-05-09T03:17:42.424Z,24.35
2023-05-09T03:20:10.754Z,24.41
2023-05-09T03:22:38.685Z,24.25
2023-05-09T03:25:09.773Z,24.19
2023-05-09T03:27:37.618Z,24.02
2023-05-09T03:30:09.032Z,24.25
2023-05-09T03:32:37.371Z,24.21
2023-05-09T03:35:05.392Z,23.95
2023-05-09T03:37:33.722Z,24.15
2023-05-09T03:40:01.676Z,24.36
2023-05-09T03:42:32.765Z,24.24
2023-05-09T03:45:02.938Z,24.24
2023-05-09T03:47:31.799Z,24.39
2023-05-09T03:49:59.699Z,24.40
2023-05-09T03:52:27.532Z,24.26
2023-05-09T03:54:56.034Z,24.09
2023-05-09T03:57:23.862Z,24.38
2023-05-09T03:59:53.966Z,24.23
2023-05-09T04:02:23.338Z,24.24
2023-05-09T04:04:52.964Z,24.13
2023-05-09T04:07:22.736Z,24.35
2023-05-09T04:09:50.814Z,24.10
2023-05-09T04:12:18.645Z,23.99
2023-05-09T04:14:48.930Z,24.28
2023-05-09T04:17:18.331Z,24.21
2023-05-09T04:19:46.569Z,23.99
2023-05-09T04:22:14.481Z,24.27
2023-05-09T04:24:42.692Z,24.11
2023-05-09T04:27:10.480Z,24.33
2023-05-09T04:29:39.085Z,24.23
2023-05-09T04:32:07.418Z,24.33
2023-05-09T04:34:36.096Z,24.35
2023-05-09T04:37:10.155Z,24.28
2023-05-09T04:39:38.287Z,24.24
2023-05-09T04:42:14.694Z,24.03
2023-05-09T04:44:42.556Z,24.20
2023-05-09T04:47:10.625Z,24.11
2023-05-09T04:49:38.777Z,23.92
2023-05-09T04:52:07.197Z,24.28
2023-05-09T04:54:35.119Z,24.12
2023-05-09T04:57:16.505Z,24.21
2023-05-09T04:59:47.281Z,24.24
2023-05-09T05:02:16.367Z,24.24
2023-05-09T05:04:44.441Z,24.09
2023-05-09T05:07:12.566Z,24.20
2023-05-09T05:09:40.458Z,24.09
2023-05-09T05:12:09.827Z,23.86
2023-05-09T05:14:38.981Z,24.21
2023-05-09T05:17:09.388Z,24.11
2023-05-09T05:19:37.428Z,24.28
2023-05-09T05:22:07.312Z,24.32
2023-05-09T05:24:38.009Z,24.35
2023-05-09T05:27:05.803Z,24.11
2023-05-09T05:29:33.657Z,24.27
2023-05-09T05:32:01.770Z,24.29
2023-05-09T05:34:29.535Z,24.17
2023-05-09T05:36:57.433Z,24.41
2023-05-09T05:39:25.454Z,24.16
2023-05-09T05:41:54.185Z,24.34
2023-05-09T05:44:22.150Z,24.15
2023-05-09T05:46:50.481Z,24.23
2023-05-09T05:49:18.590Z,24.07
2023-05-09T05:51:46.728Z,24.22
2023-05-09T05:54:14.749Z,24.25
2023-05-09T05:56:42.943Z,24.15
2023-05-09T05:59:13.330Z,24.25
2023-05-09T06:01:41.841Z,24.40
2023-05-09T06:04:10.255Z,24.26
2023-05-09T06:06:38.769Z,24.21
2023-05-09T06:09:06.516Z,24.16
2023-05-09T06:11:34.310Z,24.13
2023-05-09T06:14:02.178Z,24.45
2023-05-09T06:16:30.408Z,24.46
2023-05-09T06:18:58.288Z,24.18
2023-05-09T06:21:27.017Z,24.48
2023-05-09T06:24:05.866Z,24.48
2023-05-09T06:26:36.881Z,24.25
2023-05-09T06:29:06.713Z,24.24
2023-05-09T06:31:39.129Z,24.41
2023-05-09T06:34:07.759Z,24.48
2023-05-09T06:36:35.882Z,24.15
2023-05-09T06:39:03.878Z,24.48
2023-05-09T06:41:31.808Z,24.35
2023-05-09T06:43:59.840Z,24.42
2023-05-09T06:46:27.645Z,24.07
2023-05-09T06:48:55.539Z,24.04
2023-05-09T06:51:23.417Z,24.44
2023-05-09T06:53:51.473Z,24.41
2023-05-09T06:56:26.577Z,24.36
2023-05-09T06:58:54.518Z,24.18
2023-05-09T07:01:22.563Z,24.42
2023-05-09T07:03:50.344Z,24.38
2023-05-09T07:06:23.525Z,24.15
2023-05-09T07:08:51.426Z,24.30
2023-05-09T07:11:19.517Z,24.48
2023-05-09T07:13:50.213Z,24.43
2023-05-09T07:16:23.237Z,24.51
2023-05-09T07:18:53.702Z,24.50
2023-05-09T07:21:23.281Z,24.06
2023-05-09T07:23:51.258Z,24.49
2023-05-09T07:26:21.704Z,24.50
2023-05-09T07:28:52.042Z,24.29
2023-05-09T07:31:22.877Z,24.18
2023-05-09T07:33:50.813Z,24.12
2023-05-09T07:36:18.839Z,24.39
2023-05-09T07:38:48.222Z,24.34
2023-05-09T07:41:16.653Z,24.44
2023-05-09T07:43:44.743Z,24.36
2023-05-09T07:46:12.794Z,24.44
2023-05-09T07:48:40.714Z,24.11
2023-05-09T07:51:08.910Z,24.12
2023-05-09T07:53:37.054Z,24.40
2023-05-09T07:56:08.280Z,24.52
2023-05-09T07:58:36.134Z,24.11
2023-05-09T08:01:08.568Z,24.34
2023-05-09T08:03:36.534Z,24.60
2023-05-09T08:06:04.401Z,24.50
2023-05-09T08:08:32.344Z,24.59
2023-05-09T08:11:01.072Z,24.61
2023-05-09T08:13:28.995Z,24.61
2023-05-09T08:15:57.437Z,24.44
2023-05-09T08:18:25.648Z,24.37
2023-05-09T08:20:53.608Z,24.39
2023-05-09T08:23:21.727Z,24.20
2023-05-09T08:25:53.404Z,24.52
2023-05-09T08:28:24.434Z,24.55
2023-05-09T08:30:52.659Z,24.36
2023-05-09T08:33:20.594Z,24.54
2023-05-09T08:35:55.184Z,24.48
2023-05-09T08:38:24.527Z,24.82
2023-05-09T08:40:54.314Z,24.55
2023-05-09T08:43:24.101Z,24.55
2023-05-09T08:45:55.226Z,24.69
2023-05-09T08:48:28.270Z,24.44
2023-05-09T08:50:59.703Z,24.56
2023-05-09T08:53:28.187Z,24.64
2023-05-09T08:55:56.679Z,24.07
2023-05-09T08:58:24.667Z,23.97
2023-05-09T09:00:53.764Z,24.54
2023-05-09T09:03:21.899Z,24.77
2023-05-09T09:05:51.881Z,24.87
2023-05-09T09:08:20.828Z,24.82
2023-05-09T09:10:49.212Z,24.88
2023-05-09T09:13:18.210Z,24.63
2023-05-09T09:15:47.401Z,24.71
2023-05-09T09:18:24.019Z,24.52
2023-05-09T09:20:57.816Z,24.91
2023-05-09T09:23:27.462Z,24.83
2023-05-09T09:26:00.485Z,24.60
2023-05-09T09:28:28.641Z,24.93
2023-05-09T09:30:56.935Z,24.95
2023-05-09T09:33:26.845Z,24.93
2023-05-09T09:35:56.301Z,24.72
2023-05-09T09:38:25.242Z,24.80
2023-05-09T09:40:55.057Z,24.93
2023-05-09T09:43:32.759Z,24.94
2023-05-09T09:46:04.741Z,24.97
2023-05-09T09:48:36.668Z,25.05
2023-05-09T09:51:11.923Z,25.09
2023-05-09T09:53:44.152Z,24.89
2023-05-09T09:56:12.297Z,25.02
2023-05-09T09:58:40.241Z,25.07
2023-05-09T10:01:10.052Z,24.92
2023-05-09T10:03:39.323Z,25.17
2023-05-09T10:06:12.208Z,24.69
2023-05-09T10:08:41.047Z,24.95
2023-05-09T10:11:10.414Z,23.75
2023-05-09T10:13:38.907Z,24.35
2023-05-09T10:16:09.165Z,24.69
2023-05-09T10:18:40.000Z,24.49
2023-05-09T10:21:12.330Z,25.02
2023-05-09T10:23:47.162Z,25.07
2023-05-09T10:26:20.090Z,25.25
2023-05-09T10:28:50.008Z,24.97
2023-05-09T10:31:39.425Z,25.21
2023-05-09T10:34:10.742Z,25.26
2023-05-09T10:36:38.595Z,25.10
2023-05-09T10:39:06.865Z,24.82
2023-05-09T10:41:37.312Z,25.29
2023-05-09T10:44:06.562Z,24.39
2023-05-09T10:46:36.188Z,24.83
2023-05-09T10:49:04.269Z,24.31
2023-05-09T10:51:33.193Z,24.20
2023-05-09T10:54:01.738Z,24.43
2023-05-09T10:56:35.978Z,24.20
2023-05-09T10:59:04.285Z,24.06
2023-05-09T11:01:37.724Z,24.81
2023-05-09T11:04:11.688Z,25.03
2023-05-09T11:06:51.962Z,25.28
2023-05-09T11:09:25.351Z,25.28
2023-05-09T11:11:58.000Z,24.33
2023-05-09T11:14:53.911Z,25.27
2023-05-09T11:17:22.242Z,25.26
2023-05-09T11:19:50.295Z,25.26
2023-05-09T11:22:22.047Z,25.01
2023-05-09T11:25:00.411Z,24.96
2023-05-09T11:27:29.394Z,24.99
2023-05-09T11:29:59.560Z,25.10
2023-05-09T11:32:53.845Z,25.02
2023-05-09T11:35:23.386Z,25.26
2023-05-09T11:38:07.058Z,25.02
2023-05-09T11:40:35.576Z,25.11
2023-05-09T11:43:03.781Z,24.89
2023-05-09T11:45:33.478Z,24.92
2023-05-09T11:48:02.418Z,25.23
2023-05-09T11:50:30.479Z,24.57
2023-05-09T11:52:58.809Z,24.02
2023-05-09T11:55:30.330Z,25.19
2023-05-09T11:57:59.188Z,25.30
2023-05-09T12:00:27.130Z,25.20
2023-05-09T12:02:55.144Z,24.77
2023-05-09T12:05:23.916Z,25.25
2023-05-09T12:07:52.882Z,24.97
2023-05-09T12:10:23.157Z,24.21
2023-05-09T12:12:53.179Z,24.03
2023-05-09T12:15:22.208Z,25.05
2023-05-09T12:18:04.897Z,23.78
2023-05-09T12:20:48.692Z,23.64
2023-05-09T12:23:17.043Z,25.12
2023-05-09T12:25:57.906Z,24.64
2023-05-09T12:28:26.748Z,25.12
2023-05-09T12:30:55.292Z,24.50
2023-05-09T12:33:23.926Z,24.66
2023-05-09T12:36:12.637Z,25.21
2023-05-09T12:38:40.921Z,24.10
2023-05-09T12:41:18.817Z,24.70
2023-05-09T12:43:57.999Z,24.48
2023-05-09T12:46:26.040Z,24.23
2023-05-09T12:48:54.506Z,25.24
2023-05-09T12:51:23.008Z,25.25
2023-05-09T12:53:51.443Z,25.27
2023-05-09T12:56:23.559Z,25.21
2023-05-09T12:58:53.956Z,25.28
2023-05-09T13:01:27.744Z,25.20
2023-05-09T13:04:04.206Z,25.24
2023-05-09T13:06:36.086Z,25.20
2023-05-09T13:09:06.517Z,25.15
2023-05-09T13:11:35.548Z,24.93
2023-05-09T13:14:04.349Z,25.09
2023-05-09T13:16:32.508Z,25.26
2023-05-09T13:19:01.720Z,25.35
2023-05-09T13:21:29.984Z,25.32
2023-05-09T13:23:57.834Z,25.24
2023-05-09T13:26:27.464Z,25.31
2023-05-09T13:28:56.210Z,25.18
2023-05-09T13:31:24.511Z,25.39
2023-05-09T13:33:52.589Z,25.16
2023-05-09T13:36:23.497Z,25.29
2023-05-09T13:38:51.335Z,25.43
2023-05-09T13:41:24.098Z,25.43
2023-05-09T13:43:51.933Z,25.44
2023-05-09T13:46:19.736Z,25.12
2023-05-09T13:48:47.964Z,25.20
2023-05-09T13:51:15.735Z,25.45
2023-05-09T13:53:43.569Z,25.48
2023-05-09T13:56:11.871Z,25.24
2023-05-09T13:58:39.665Z,25.14
2023-05-09T14:01:07.842Z,25.36
2023-05-09T14:03:36.011Z,25.08
2023-05-09T14:06:04.502Z,25.37
2023-05-09T14:08:32.482Z,25.36
2023-05-09T14:11:00.375Z,25.47
2023-05-09T14:13:28.566Z,25.27
2023-05-09T14:15:56.324Z,25.43
2023-05-09T14:18:24.073Z,25.21
2023-05-09T14:20:51.850Z,25.38
2023-05-09T14:23:19.575Z,25.38
2023-05-09T14:25:47.258Z,25.40
2023-05-09T14:28:15.045Z,25.07
2023-05-09T14:30:42.766Z,25.14
2023-05-09T14:33:10.733Z,25.17
2023-05-09T14:35:41.071Z,25.28
2023-05-09T14:38:09.428Z,25.19
2023-05-09T14:40:37.733Z,25.33
2023-05-09T14:43:06.173Z,25.38
2023-05-09T14:45:34.035Z,25.32
2023-05-09T14:48:05.890Z,25.28
2023-05-09T14:50:33.880Z,25.46
2023-05-09T14:53:02.191Z,25.44
2023-05-09T14:55:31.381Z,25.36
2023-05-09T14:57:59.468Z,25.41
2023-05-09T15:00:28.783Z,25.38
2023-05-09T15:02:57.300Z,25.06
2023-05-09T15:05:25.366Z,25.34
2023-05-09T15:07:53.117Z,25.15
2023-05-09T15:10:21.147Z,25.30
2023-05-09T15:12:51.766Z,25.28
2023-05-09T15:15:21.314Z,25.27
2023-05-09T15:17:49.418Z,25.27
2023-05-09T15:20:18.403Z,25.04
2023-05-09T15:22:50.438Z,25.24
2023-05-09T15:25:18.614Z,25.21
2023-05-09T15:27:46.554Z,25.23
2023-05-09T15:30:14.733Z,25.18
2023-05-09T15:32:42.847Z,25.04
2023-05-09T15:35:10.652Z,25.22
2023-05-09T15:37:38.732Z,25.23
2023-05-09T15:40:08.107Z,25.10
2023-05-09T15:42:38.820Z,25.21
2023-05-09T15:45:07.299Z,25.16
2023-05-09T15:47:35.092Z,25.10
2023-05-09T15:50:03.354Z,25.10
2023-05-09T15:52:31.534Z,25.19
2023-05-09T15:54:59.851Z,25.07
2023-05-09T15:57:28.132Z,25.12
2023-05-09T15:59:56.238Z,25.03
2023-05-09T16:02:24.318Z,25.16
2023-05-09T16:04:52.312Z,25.08
2023-05-09T16:07:20.938Z,25.06
2023-05-09T16:09:48.887Z,25.12
2023-05-09T16:12:16.674Z,25.05
2023-05-09T16:14:44.395Z,25.07
2023-05-09T16:17:12.794Z,24.99
2023-05-09T16:19:40.974Z,24.99
2023-05-09T16:22:08.937Z,25.02
2023-05-09T16:24:37.693Z,25.10
2023-05-09T16:27:05.468Z,25.03
2023-05-09T16:29:33.322Z,24.98
2023-05-09T16:32:01.515Z,25.12
2023-05-09T16:34:29.625Z,25.03
2023-05-09T16:36:57.528Z,25.05
2023-05-09T16:39:28.054Z,25.16
2023-05-09T16:41:56.468Z,24.90
2023-05-09T16:44:26.046Z,25.16
2023-05-09T16:46:53.868Z,24.99
2023-05-09T16:49:21.624Z,24.93
2023-05-09T16:51:49.575Z,25.17
2023-05-09T16:54:17.412Z,25.17
2023-05-09T16:56:45.142Z,25.24
2023-05-09T16:59:13.406Z,24.81
2023-05-09T17:01:42.728Z,24.84
2023-05-09T17:04:10.456Z,25.12
2023-05-09T17:06:38.376Z,25.41
2023-05-09T17:09:06.444Z,25.42
2023-05-09T17:11:34.264Z,25.17
2023-05-09T17:14:03.579Z,25.43
2023-05-09T17:16:31.502Z,25.28
2023-05-09T17:18:59.397Z,25.20
2023-05-09T17:21:27.243Z,25.21
2023-05-09T17:23:56.925Z,25.24
2023-05-09T17:26:26.050Z,25.42
2023-05-09T17:28:53.882Z,25.46
2023-05-09T17:31:22.045Z,25.43
2023-05-09T17:33:50.082Z,25.23
2023-05-09T17:36:18.003Z,25.32
2023-05-09T17:38:46.466Z,25.10
2023-05-09T17:41:14.465Z,24.96
2023-05-09T17:43:43.183Z,25.30
2023-05-09T17:46:11.190Z,25.22
2023-05-09T17:48:39.039Z,25.07
2023-05-09T17:51:07.254Z,25.32
2023-05-09T17:53:35.116Z,25.32
2023-05-09T17:56:05.342Z,25.25
2023-05-09T17:58:33.101Z,24.96
2023-05-09T18:01:01.279Z,25.16
2023-05-09T18:03:29.172Z,25.37
2023-05-09T18:05:57.330Z,25.19
2023-05-09T18:08:25.092Z,25.12
2023-05-09T18:10:54.920Z,25.18
2023-05-09T18:13:23.276Z,25.39
2023-05-09T18:15:51.266Z,25.08
2023-05-09T18:18:19.175Z,25.35
2023-05-09T18:20:47.632Z,25.37
2023-05-09T18:23:16.186Z,25.41
2023-05-09T18:25:44.031Z,25.05
2023-05-09T18:28:11.868Z,25.36
2023-05-09T18:30:39.766Z,25.03
2023-05-09T18:33:08.482Z,25.43
2023-05-09T18:35:36.411Z,25.46
2023-05-09T18:38:04.362Z,25.45
2023-05-09T18:40:32.976Z,25.18
2023-05-09T18:43:00.834Z,25.15
2023-05-09T18:45:29.310Z,25.33
2023-05-09T18:47:57.248Z,25.13
2023-05-09T18:50:25.187Z,24.84
2023-05-09T18:52:53.125Z,25.08
2023-05-09T18:55:22.197Z,25.18
2023-05-09T18:57:50.027Z,24.97
2023-05-09T19:00:18.284Z,25.13
2023-05-09T19:02:46.169Z,25.06
2023-05-09T19:05:13.816Z,25.12
2023-05-09T19:07:41.671Z,25.00
2023-05-09T19:10:09.933Z,25.11
2023-05-09T19:12:38.024Z,24.93
2023-05-09T19:15:06.353Z,24.96
2023-05-09T19:17:34.372Z,24.95
2023-05-09T19:20:02.715Z,25.06
2023-05-09T19:22:31.622Z,24.30
2023-05-09T19:24:59.381Z,25.17
2023-05-09T19:27:27.344Z,25.16
2023-05-09T19:29:55.115Z,24.87
2023-05-09T19:32:23.068Z,24.90
2023-05-09T19:34:51.001Z,25.09
2023-05-09T19:37:18.772Z,25.05
2023-05-09T19:39:46.681Z,24.70
2023-05-09T19:42:15.134Z,25.04
2023-05-09T19:44:43.052Z,24.98
2023-05-09T19:47:11.447Z,24.86
2023-05-09T19:49:40.497Z,24.64
2023-05-09T19:52:08.192Z,24.64
2023-05-09T19:54:35.954Z,24.88
2023-05-09T19:57:06.603Z,24.76
2023-05-09T19:59:34.680Z,24.74
2023-05-09T20:02:07.617Z,24.81
2023-05-09T20:04:36.841Z,24.96
2023-05-09T20:07:07.433Z,24.98
2023-05-09T20:09:35.720Z,24.64
2023-05-09T20:12:03.997Z,23.61
2023-05-09T20:14:32.292Z,23.79
2023-05-09T20:17:00.148Z,24.98
2023-05-09T20:19:28.260Z,24.94
2023-05-09T20:21:56.357Z,24.84
2023-05-09T20:24:24.357Z,24.58
2023-05-09T20:26:53.843Z,24.84
2023-05-09T20:29:21.786Z,24.85
2023-05-09T20:31:49.850Z,24.92
2023-05-09T20:34:18.210Z,24.93
2023-05-09T20:36:48.797Z,24.95
2023-05-09T20:39:17.961Z,23.60
2023-05-09T20:41:47.228Z,23.57
2023-05-09T20:44:16.312Z,23.80
2023-05-09T20:46:45.330Z,24.24
2023-05-09T20:49:13.591Z,24.54
2023-05-09T20:51:42.773Z,23.79
2023-05-09T20:54:12.856Z,24.40
2023-05-09T20:56:40.908Z,23.46
2023-05-09T20:59:08.979Z,23.98
2023-05-09T21:01:40.038Z,24.92
2023-05-09T21:04:08.571Z,23.86
2023-05-09T21:06:37.588Z,24.48
2023-05-09T21:09:06.752Z,24.79
2023-05-09T21:11:40.230Z,24.47
2023-05-09T21:14:09.976Z,23.70
2023-05-09T21:16:39.339Z,24.64
2023-05-09T21:19:09.029Z,24.63
2023-05-09T21:21:36.989Z,24.13
2023-05-09T21:24:09.510Z,24.98
2023-05-09T21:26:37.553Z,24.91
2023-05-09T21:29:05.687Z,24.68
2023-05-09T21:31:34.654Z,24.65
2023-05-09T21:34:02.701Z,24.88
2023-05-09T21:36:31.599Z,24.24
2023-05-09T21:38:59.521Z,24.71
2023-05-09T21:41:28.096Z,24.75
2023-05-09T21:43:56.241Z,24.47
2023-05-09T21:46:25.193Z,24.84
2023-05-09T21:48:53.583Z,24.93
2023-05-09T21:51:22.020Z,24.67
2023-05-09T21:53:49.879Z,24.77
2023-05-09T21:56:19.286Z,24.40
2023-05-09T21:58:47.182Z,24.47
2023-05-09T22:01:18.098Z,24.50
2023-05-09T22:03:46.318Z,24.69
2023-05-09T22:06:14.134Z,24.61
2023-05-09T22:08:42.013Z,24.71
2023-05-09T22:11:10.941Z,24.62
2023-05-09T22:13:39.939Z,24.14
2023-05-09T22:16:08.010Z,24.59
2023-05-09T22:18:35.929Z,24.57
2023-05-09T22:21:04.191Z,24.59
2023-05-09T22:23:34.613Z,24.10
2023-05-09T22:26:02.491Z,24.77
2023-05-09T22:28:30.743Z,24.50
2023-05-09T22:30:58.643Z,24.63
2023-05-09T22:33:29.374Z,24.38
2023-05-09T22:35:58.907Z,24.16
2023-05-09T22:38:26.883Z,23.29
2023-05-09T22:40:55.050Z,24.53
2023-05-09T22:43:25.387Z,23.64
2023-05-09T22:45:56.828Z,23.80
2023-05-09T22:48:25.112Z,23.33
2023-05-09T22:50:55.799Z,23.41
2023-05-09T22:53:24.230Z,24.59
2023-05-09T22:55:55.140Z,24.71
2023-05-09T22:58:23.365Z,23.80
2023-05-09T23:00:51.499Z,23.92
2023-05-09T23:03:23.393Z,23.30
2023-05-09T23:05:52.702Z,23.41
2023-05-09T23:08:23.734Z,23.76
2023-05-09T23:10:54.292Z,23.23
2023-05-09T23:13:23.870Z,23.58
2023-05-09T23:15:52.446Z,24.55
2023-05-09T23:18:23.163Z,24.17
2023-05-09T23:20:51.258Z,24.38
2023-05-09T23:23:19.349Z,23.22
2023-05-09T23:25:47.513Z,23.50
2023-05-09T23:28:17.007Z,23.20
2023-05-09T23:30:45.324Z,23.42
2023-05-09T23:33:16.621Z,23.08
2023-05-09T23:35:51.098Z,23.80
2023-05-09T23:38:20.104Z,24.37
2023-05-09T23:40:48.433Z,23.48
2023-05-09T23:43:21.067Z,23.22
2023-05-09T23:45:49.794Z,23.12
2023-05-09T23:48:18.103Z,23.12
2023-05-09T23:50:46.436Z,23.99
2023-05-09T23:53:15.269Z,23.79
2023-05-09T23:55:43.771Z,23.42
2023-05-09T23:58:12.890Z,23.71
